sensor_id;sensor_type;location;lat;lon;timestamp;P1;durP1;ratioP1;P2;durP2;ratioP2
25609;SDS011;13479;49.044;8.716;2023-01-16T05:02:37;2.00;;;0.50;;
25609;SDS011;13479;49.044;8.716;2023-01-16T05:05:03;1.23;;;0.50;;
25609;SDS011;13479;49.044;8.716;2023-01-16T05:07:28;15.83;;;1.80;;
25609;SDS011;13479;49.044;8.716;2023-01-16T05:09:54;3.90;;;0.93;;
25609;SDS011;13479;49.044;8.716;2023-01-16T05:12:19;5.50;;;0.63;;
25609;SDS011;13479;49.044;8.716;2023-01-16T05:14:45;2.60;;;0.57;;
25609;SDS011;13479;49.044;8.716;2023-01-16T05:17:10;3.07;;;0.90;;
25609;SDS011;13479;49.044;8.716;2023-01-16T05:19:35;1.90;;;0.40;;
25609;SDS011;13479;49.044;8.716;2023-01-16T05:22:00;2.07;;;0.50;;
25609;SDS011;13479;49.044;8.716;2023-01-16T05:24:26;4.47;;;0.60;;
25609;SDS011;13479;49.044;8.716;2023-01-16T05:26:51;0.97;;;0.40;;
25609;SDS011;13479;49.044;8.716;2023-01-16T05:29:16;2.10;;;0.37;;
25609;SDS011;13479;49.044;8.716;2023-01-16T05:31:41;3.50;;;0.50;;
25609;SDS011;13479;49.044;8.716;2023-01-16T05:34:08;1.57;;;0.50;;
25609;SDS011;13479;49.044;8.716;2023-01-16T05:36:33;0.97;;;0.50;;
25609;SDS011;13479;49.044;8.716;2023-01-16T05:38:59;0.87;;;0.30;;
25609;SDS011;13479;49.044;8.716;2023-01-16T05:41:25;2.73;;;0.40;;
25609;SDS011;13479;49.044;8.716;2023-01-16T05:43:50;1.93;;;0.60;;
25609;SDS011;13479;49.044;8.716;2023-01-16T05:46:15;2.43;;;0.70;;
25609;SDS011;13479;49.044;8.716;2023-01-16T05:48:40;4.07;;;0.90;;
25609;SDS011;13479;49.044;8.716;2023-01-16T05:51:06;2.23;;;0.40;;
25609;SDS011;13479;49.044;8.716;2023-01-16T05:53:31;2.60;;;0.40;;
25609;SDS011;13479;49.044;8.716;2023-01-16T05:55:57;1.73;;;0.43;;
25609;SDS011;13479;49.044;8.716;2023-01-16T05:58:23;4.37;;;0.60;;
25609;SDS011;13479;49.044;8.716;2023-01-16T06:00:48;1.47;;;0.60;;
25609;SDS011;13479;49.044;8.716;2023-01-16T06:03:14;2.87;;;1.17;;
25609;SDS011;13479;49.044;8.716;2023-01-16T06:05:40;2.67;;;1.00;;
25609;SDS011;13479;49.044;8.716;2023-01-16T06:08:06;3.73;;;0.60;;
25609;SDS011;13479;49.044;8.716;2023-01-16T06:10:31;3.47;;;1.00;;
25609;SDS011;13479;49.044;8.716;2023-01-16T06:12:57;2.30;;;0.87;;
25609;SDS011;13479;49.044;8.716;2023-01-16T06:15:22;3.57;;;0.57;;
25609;SDS011;13479;49.044;8.716;2023-01-16T06:17:47;5.17;;;0.80;;
25609;SDS011;13479;49.044;8.716;2023-01-16T06:20:15;0.50;;;0.20;;
25609;SDS011;13479;49.044;8.716;2023-01-16T06:22:41;0.90;;;0.30;;
25609;SDS011;13479;49.044;8.716;2023-01-16T06:25:06;3.00;;;0.33;;
25609;SDS011;13479;49.044;8.716;2023-01-16T06:27:32;0.50;;;0.20;;
25609;SDS011;13479;49.044;8.716;2023-01-16T06:29:57;1.00;;;0.50;;
25609;SDS011;13479;49.044;8.716;2023-01-16T06:32:22;1.60;;;0.43;;
25609;SDS011;13479;49.044;8.716;2023-01-16T06:34:47;1.10;;;0.30;;
25609;SDS011;13479;49.044;8.716;2023-01-16T06:37:13;2.67;;;0.43;;
25609;SDS011;13479;49.044;8.716;2023-01-16T06:39:38;0.47;;;0.30;;
25609;SDS011;13479;49.044;8.716;2023-01-16T06:42:03;0.30;;;0.30;;
25609;SDS011;13479;49.044;8.716;2023-01-16T06:44:30;2.80;;;0.43;;
25609;SDS011;13479;49.044;8.716;2023-01-16T06:46:56;1.57;;;0.50;;
25609;SDS011;13479;49.044;8.716;2023-01-16T06:49:21;1.57;;;0.40;;
25609;SDS011;13479;49.044;8.716;2023-01-16T06:51:47;1.57;;;0.30;;
25609;SDS011;13479;49.044;8.716;2023-01-16T06:54:12;2.63;;;0.63;;
25609;SDS011;13479;49.044;8.716;2023-01-16T06:56:37;3.43;;;0.60;;
25609;SDS011;13479;49.044;8.716;2023-01-16T06:59:03;3.23;;;0.50;;
25609;SDS011;13479;49.044;8.716;2023-01-16T07:01:28;2.20;;;0.93;;
25609;SDS011;13479;49.044;8.716;2023-01-16T07:03:54;2.53;;;1.03;;
25609;SDS011;13479;49.044;8.716;2023-01-16T07:06:19;0.50;;;0.30;;
25609;SDS011;13479;49.044;8.716;2023-01-16T07:08:44;1.53;;;0.40;;
25609;SDS011;13479;49.044;8.716;2023-01-16T07:11:10;4.00;;;0.40;;
25609;SDS011;13479;49.044;8.716;2023-01-16T07:13:36;1.00;;;0.40;;
25609;SDS011;13479;49.044;8.716;2023-01-16T07:16:01;1.10;;;0.60;;
25609;SDS011;13479;49.044;8.716;2023-01-16T07:18:45;0.60;;;0.40;;
25609;SDS011;13479;49.044;8.716;2023-01-16T07:21:29;2.63;;;0.43;;
25609;SDS011;13479;49.044;8.716;2023-01-16T07:24:15;1.17;;;0.53;;
25609;SDS011;13479;49.044;8.716;2023-01-16T07:26:46;2.47;;;1.03;;
25609;SDS011;13479;49.044;8.716;2023-01-16T07:29:15;1.20;;;0.43;;
25609;SDS011;13479;49.044;8.716;2023-01-16T07:31:41;1.30;;;0.50;;
25609;SDS011;13479;49.044;8.716;2023-01-16T07:34:06;2.00;;;0.70;;
25609;SDS011;13479;49.044;8.716;2023-01-16T07:36:31;0.90;;;0.40;;
25609;SDS011;13479;49.044;8.716;2023-01-16T07:38:56;0.43;;;0.20;;
25609;SDS011;13479;49.044;8.716;2023-01-16T07:41:22;1.27;;;0.60;;
25609;SDS011;13479;49.044;8.716;2023-01-16T07:43:47;1.57;;;0.60;;
25609;SDS011;13479;49.044;8.716;2023-01-16T07:46:12;2.43;;;0.80;;
25609;SDS011;13479;49.044;8.716;2023-01-16T07:48:37;0.77;;;0.40;;
25609;SDS011;13479;49.044;8.716;2023-01-16T07:51:03;4.20;;;0.60;;
25609;SDS011;13479;49.044;8.716;2023-01-16T07:53:30;0.23;;;0.20;;
25609;SDS011;13479;49.044;8.716;2023-01-16T07:55:56;2.63;;;0.30;;
25609;SDS011;13479;49.044;8.716;2023-01-16T07:58:23;1.63;;;0.60;;
25609;SDS011;13479;49.044;8.716;2023-01-16T08:00:49;1.57;;;0.50;;
25609;SDS011;13479;49.044;8.716;2023-01-16T08:03:16;1.70;;;0.40;;
25609;SDS011;13479;49.044;8.716;2023-01-16T08:05:41;3.87;;;0.50;;
25609;SDS011;13479;49.044;8.716;2023-01-16T08:08:10;2.60;;;0.73;;
25609;SDS011;13479;49.044;8.716;2023-01-16T08:10:36;1.23;;;0.53;;
25609;SDS011;13479;49.044;8.716;2023-01-16T08:13:02;1.60;;;0.40;;
25609;SDS011;13479;49.044;8.716;2023-01-16T08:15:27;1.27;;;0.50;;
25609;SDS011;13479;49.044;8.716;2023-01-16T08:17:53;2.55;;;0.68;;
25609;SDS011;13479;49.044;8.716;2023-01-16T08:20:18;3.60;;;0.77;;
25609;SDS011;13479;49.044;8.716;2023-01-16T08:22:44;1.37;;;0.60;;
25609;SDS011;13479;49.044;8.716;2023-01-16T08:25:10;0.97;;;0.40;;
25609;SDS011;13479;49.044;8.716;2023-01-16T08:27:36;0.50;;;0.40;;
25609;SDS011;13479;49.044;8.716;2023-01-16T08:30:01;5.23;;;0.50;;
25609;SDS011;13479;49.044;8.716;2023-01-16T08:32:27;1.40;;;0.60;;
25609;SDS011;13479;49.044;8.716;2023-01-16T08:34:52;1.60;;;0.30;;
25609;SDS011;13479;49.044;8.716;2023-01-16T08:37:17;12.63;;;0.90;;
25609;SDS011;13479;49.044;8.716;2023-01-16T08:39:43;4.10;;;0.60;;
25609;SDS011;13479;49.044;8.716;2023-01-16T08:42:08;1.20;;;0.50;;
25609;SDS011;13479;49.044;8.716;2023-01-16T08:44:52;0.73;;;0.40;;
25609;SDS011;13479;49.044;8.716;2023-01-16T08:47:40;3.13;;;0.53;;
25609;SDS011;13479;49.044;8.716;2023-01-16T08:50:24;0.63;;;0.50;;
25609;SDS011;13479;49.044;8.716;2023-01-16T08:53:08;1.60;;;0.67;;
25609;SDS011;13479;49.044;8.716;2023-01-16T08:55:34;2.63;;;0.40;;
25609;SDS011;13479;49.044;8.716;2023-01-16T08:57:59;1.47;;;0.50;;
25609;SDS011;13479;49.044;8.716;2023-01-16T09:00:25;2.07;;;0.50;;
25609;SDS011;13479;49.044;8.716;2023-01-16T09:02:51;0.97;;;0.57;;
25609;SDS011;13479;49.044;8.716;2023-01-16T09:05:17;1.67;;;0.63;;
25609;SDS011;13479;49.044;8.716;2023-01-16T09:07:43;0.60;;;0.40;;
25609;SDS011;13479;49.044;8.716;2023-01-16T09:10:08;5.50;;;1.23;;
25609;SDS011;13479;49.044;8.716;2023-01-16T09:12:34;2.20;;;0.60;;
25609;SDS011;13479;49.044;8.716;2023-01-16T09:15:18;3.03;;;0.70;;
25609;SDS011;13479;49.044;8.716;2023-01-16T09:17:43;0.80;;;0.50;;
25609;SDS011;13479;49.044;8.716;2023-01-16T09:20:08;1.80;;;0.50;;
25609;SDS011;13479;49.044;8.716;2023-01-16T09:22:34;1.37;;;0.60;;
25609;SDS011;13479;49.044;8.716;2023-01-16T09:25:00;1.13;;;0.70;;
25609;SDS011;13479;49.044;8.716;2023-01-16T09:27:25;1.80;;;0.60;;
25609;SDS011;13479;49.044;8.716;2023-01-16T09:29:50;3.10;;;0.70;;
25609;SDS011;13479;49.044;8.716;2023-01-16T09:32:16;8.03;;;0.93;;
25609;SDS011;13479;49.044;8.716;2023-01-16T09:34:43;1.20;;;0.37;;
25609;SDS011;13479;49.044;8.716;2023-01-16T09:37:09;0.97;;;0.53;;
25609;SDS011;13479;49.044;8.716;2023-01-16T09:39:34;1.80;;;0.40;;
25609;SDS011;13479;49.044;8.716;2023-01-16T09:45:29;0.90;;;0.60;;
25609;SDS011;13479;49.044;8.716;2023-01-16T09:47:58;2.63;;;0.67;;
25609;SDS011;13479;49.044;8.716;2023-01-16T09:53:03;0.40;;;0.40;;
25609;SDS011;13479;49.044;8.716;2023-01-16T09:55:52;0.53;;;0.30;;
25609;SDS011;13479;49.044;8.716;2023-01-16T09:58:38;2.50;;;0.50;;
25609;SDS011;13479;49.044;8.716;2023-01-16T10:01:12;0.93;;;0.50;;
25609;SDS011;13479;49.044;8.716;2023-01-16T10:03:41;3.13;;;0.30;;
25609;SDS011;13479;49.044;8.716;2023-01-16T10:15:22;0.80;;;0.40;;
25609;SDS011;13479;49.044;8.716;2023-01-16T10:26:12;0.97;;;0.40;;
25609;SDS011;13479;49.044;8.716;2023-01-16T10:31:49;0.87;;;0.50;;
25609;SDS011;13479;49.044;8.716;2023-01-16T10:34:23;1.17;;;0.57;;
25609;SDS011;13479;49.044;8.716;2023-01-16T10:36:54;1.07;;;0.47;;
25609;SDS011;13479;49.044;8.716;2023-01-16T10:39:22;0.57;;;0.30;;
25609;SDS011;13479;49.044;8.716;2023-01-16T10:41:56;0.50;;;0.30;;
25609;SDS011;13479;49.044;8.716;2023-01-16T10:47:48;0.70;;;0.50;;
25609;SDS011;13479;49.044;8.716;2023-01-16T10:50:36;0.23;;;0.20;;
25609;SDS011;13479;49.044;8.716;2023-01-16T10:53:05;1.93;;;0.37;;
25609;SDS011;13479;49.044;8.716;2023-01-16T10:55:33;0.57;;;0.20;;
25609;SDS011;13479;49.044;8.716;2023-01-16T10:58:04;0.80;;;0.37;;
25609;SDS011;13479;49.044;8.716;2023-01-16T11:00:33;0.40;;;0.30;;
25609;SDS011;13479;49.044;8.716;2023-01-16T11:03:01;0.67;;;0.30;;
25609;SDS011;13479;49.044;8.716;2023-01-16T11:05:39;1.10;;;0.43;;
25609;SDS011;13479;49.044;8.716;2023-01-16T11:08:06;0.67;;;0.33;;
25609;SDS011;13479;49.044;8.716;2023-01-16T11:10:35;1.00;;;0.30;;
25609;SDS011;13479;49.044;8.716;2023-01-16T11:13:01;0.83;;;0.50;;
25609;SDS011;13479;49.044;8.716;2023-01-16T11:16:05;0.57;;;0.37;;
25609;SDS011;13479;49.044;8.716;2023-01-16T11:19:18;0.90;;;0.30;;
25609;SDS011;13479;49.044;8.716;2023-01-16T11:21:52;0.40;;;0.20;;
25609;SDS011;13479;49.044;8.716;2023-01-16T11:24:36;1.80;;;0.37;;
25609;SDS011;13479;49.044;8.716;2023-01-16T11:27:05;0.30;;;0.20;;
25609;SDS011;13479;49.044;8.716;2023-01-16T11:29:38;3.80;;;0.30;;
25609;SDS011;13479;49.044;8.716;2023-01-16T11:32:08;0.43;;;0.30;;
25609;SDS011;13479;49.044;8.716;2023-01-16T11:34:36;0.57;;;0.30;;
25609;SDS011;13479;49.044;8.716;2023-01-16T11:37:04;1.27;;;0.30;;
25609;SDS011;13479;49.044;8.716;2023-01-16T11:39:33;0.43;;;0.20;;
25609;SDS011;13479;49.044;8.716;2023-01-16T11:42:02;0.50;;;0.20;;
25609;SDS011;13479;49.044;8.716;2023-01-16T11:44:49;0.20;;;0.10;;
25609;SDS011;13479;49.044;8.716;2023-01-16T11:47:39;0.67;;;0.30;;
25609;SDS011;13479;49.044;8.716;2023-01-16T11:50:20;0.20;;;0.20;;
25609;SDS011;13479;49.044;8.716;2023-01-16T11:52:47;0.20;;;0.20;;
25609;SDS011;13479;49.044;8.716;2023-01-16T11:55:12;0.10;;;0.10;;
25609;SDS011;13479;49.044;8.716;2023-01-16T12:03:31;0.93;;;0.23;;
25609;SDS011;13479;49.044;8.716;2023-01-16T12:06:25;0.57;;;0.30;;
25609;SDS011;13479;49.044;8.716;2023-01-16T12:15:04;0.63;;;0.30;;
25609;SDS011;13479;49.044;8.716;2023-01-16T12:20:29;0.40;;;0.40;;
25609;SDS011;13479;49.044;8.716;2023-01-16T12:26:01;1.60;;;0.30;;
25609;SDS011;13479;49.044;8.716;2023-01-16T12:28:49;0.90;;;0.20;;
25609;SDS011;13479;49.044;8.716;2023-01-16T12:34:44;0.20;;;0.20;;
25609;SDS011;13479;49.044;8.716;2023-01-16T12:40:15;0.50;;;0.20;;
25609;SDS011;13479;49.044;8.716;2023-01-16T12:43:44;0.50;;;0.27;;
25609;SDS011;13479;49.044;8.716;2023-01-16T12:45:58;0.20;;;0.20;;
25609;SDS011;13479;49.044;8.716;2023-01-16T12:59:33;0.63;;;0.30;;
25609;SDS011;13479;49.044;8.716;2023-01-16T13:04:39;0.27;;;0.20;;
25609;SDS011;13479;49.044;8.716;2023-01-16T13:07:13;1.73;;;0.30;;
25609;SDS011;13479;49.044;8.716;2023-01-16T13:09:44;0.30;;;0.27;;
25609;SDS011;13479;49.044;8.716;2023-01-16T13:12:23;0.60;;;0.30;;
25609;SDS011;13479;49.044;8.716;2023-01-16T13:15:26;0.23;;;0.10;;
25609;SDS011;13479;49.044;8.716;2023-01-16T13:17:58;0.40;;;0.20;;
25609;SDS011;13479;49.044;8.716;2023-01-16T13:20:25;0.97;;;0.30;;
25609;SDS011;13479;49.044;8.716;2023-01-16T13:22:57;0.50;;;0.20;;
25609;SDS011;13479;49.044;8.716;2023-01-16T13:25:34;1.13;;;0.30;;
25609;SDS011;13479;49.044;8.716;2023-01-16T13:30:57;0.20;;;0.20;;
25609;SDS011;13479;49.044;8.716;2023-01-16T13:33:28;1.67;;;0.40;;
25609;SDS011;13479;49.044;8.716;2023-01-16T13:38:58;0.20;;;0.13;;
25609;SDS011;13479;49.044;8.716;2023-01-16T13:41:58;1.77;;;0.40;;
25609;SDS011;13479;49.044;8.716;2023-01-16T13:44:26;3.23;;;0.50;;
25609;SDS011;13479;49.044;8.716;2023-01-16T13:47:14;0.50;;;0.20;;
25609;SDS011;13479;49.044;8.716;2023-01-16T13:49:54;0.30;;;0.30;;
25609;SDS011;13479;49.044;8.716;2023-01-16T13:52:31;0.73;;;0.30;;
25609;SDS011;13479;49.044;8.716;2023-01-16T13:54:57;0.93;;;0.37;;
25609;SDS011;13479;49.044;8.716;2023-01-16T13:57:25;0.33;;;0.17;;
25609;SDS011;13479;49.044;8.716;2023-01-16T14:03:00;0.60;;;0.40;;
25609;SDS011;13479;49.044;8.716;2023-01-16T14:05:43;1.73;;;0.40;;
25609;SDS011;13479;49.044;8.716;2023-01-16T14:08:28;0.93;;;0.40;;
25609;SDS011;13479;49.044;8.716;2023-01-16T14:13:38;1.00;;;0.30;;
25609;SDS011;13479;49.044;8.716;2023-01-16T14:16:26;1.00;;;0.40;;
25609;SDS011;13479;49.044;8.716;2023-01-16T14:18:58;1.23;;;0.43;;
25609;SDS011;13479;49.044;8.716;2023-01-16T14:21:26;0.83;;;0.47;;
25609;SDS011;13479;49.044;8.716;2023-01-16T14:24:24;1.20;;;0.25;;
25609;SDS011;13479;49.044;8.716;2023-01-16T14:26:50;0.53;;;0.20;;
25609;SDS011;13479;49.044;8.716;2023-01-16T14:34:37;0.33;;;0.30;;
25609;SDS011;13479;49.044;8.716;2023-01-16T14:37:17;0.30;;;0.20;;
25609;SDS011;13479;49.044;8.716;2023-01-16T14:40:36;0.47;;;0.27;;
25609;SDS011;13479;49.044;8.716;2023-01-16T14:45:38;1.13;;;0.40;;
25609;SDS011;13479;49.044;8.716;2023-01-16T14:54:10;0.47;;;0.30;;
25609;SDS011;13479;49.044;8.716;2023-01-16T14:57:00;0.63;;;0.20;;
25609;SDS011;13479;49.044;8.716;2023-01-16T14:59:33;1.70;;;0.30;;
25609;SDS011;13479;49.044;8.716;2023-01-16T15:02:01;2.37;;;0.40;;
25609;SDS011;13479;49.044;8.716;2023-01-16T15:04:45;0.30;;;0.23;;
25609;SDS011;13479;49.044;8.716;2023-01-16T15:10:17;0.50;;;0.30;;
25609;SDS011;13479;49.044;8.716;2023-01-16T15:13:11;0.83;;;0.33;;
25609;SDS011;13479;49.044;8.716;2023-01-16T15:15:56;1.60;;;0.47;;
25609;SDS011;13479;49.044;8.716;2023-01-16T15:18:26;0.57;;;0.27;;
25609;SDS011;13479;49.044;8.716;2023-01-16T15:21:15;1.73;;;0.30;;
25609;SDS011;13479;49.044;8.716;2023-01-16T15:24:00;0.37;;;0.20;;
25609;SDS011;13479;49.044;8.716;2023-01-16T15:26:30;3.30;;;0.60;;
25609;SDS011;13479;49.044;8.716;2023-01-16T15:29:10;0.43;;;0.20;;
25609;SDS011;13479;49.044;8.716;2023-01-16T15:31:46;1.33;;;0.30;;
25609;SDS011;13479;49.044;8.716;2023-01-16T15:34:23;0.43;;;0.30;;
25609;SDS011;13479;49.044;8.716;2023-01-16T15:36:51;0.40;;;0.30;;
25609;SDS011;13479;49.044;8.716;2023-01-16T15:42:05;0.30;;;0.30;;
25609;SDS011;13479;49.044;8.716;2023-01-16T15:44:56;0.87;;;0.20;;
25609;SDS011;13479;49.044;8.716;2023-01-16T15:50:41;0.47;;;0.30;;
25609;SDS011;13479;49.044;8.716;2023-01-16T15:53:15;0.80;;;0.33;;
25609;SDS011;13479;49.044;8.716;2023-01-16T15:55:42;0.60;;;0.40;;
25609;SDS011;13479;49.044;8.716;2023-01-16T15:58:12;1.00;;;0.50;;
25609;SDS011;13479;49.044;8.716;2023-01-16T16:00:40;0.57;;;0.40;;
25609;SDS011;13479;49.044;8.716;2023-01-16T16:03:15;1.60;;;0.60;;
25609;SDS011;13479;49.044;8.716;2023-01-16T16:05:47;2.90;;;0.93;;
25609;SDS011;13479;49.044;8.716;2023-01-16T16:08:24;1.60;;;0.63;;
25609;SDS011;13479;49.044;8.716;2023-01-16T16:10:52;1.43;;;0.80;;
25609;SDS011;13479;49.044;8.716;2023-01-16T16:13:38;0.93;;;0.70;;
25609;SDS011;13479;49.044;8.716;2023-01-16T16:16:14;4.83;;;0.70;;
25609;SDS011;13479;49.044;8.716;2023-01-16T16:19:06;0.40;;;0.30;;
25609;SDS011;13479;49.044;8.716;2023-01-16T16:21:45;0.33;;;0.20;;
25609;SDS011;13479;49.044;8.716;2023-01-16T16:24:33;1.97;;;0.27;;
25609;SDS011;13479;49.044;8.716;2023-01-16T16:27:04;2.77;;;0.00;;
25609;SDS011;13479;49.044;8.716;2023-01-16T16:29:31;0.10;;;0.10;;
25609;SDS011;13479;49.044;8.716;2023-01-16T16:32:00;0.57;;;0.30;;
25609;SDS011;13479;49.044;8.716;2023-01-16T16:34:27;0.40;;;0.20;;
25609;SDS011;13479;49.044;8.716;2023-01-16T16:36:54;0.43;;;0.30;;
25609;SDS011;13479;49.044;8.716;2023-01-16T16:41:50;0.10;;;0.10;;
25609;SDS011;13479;49.044;8.716;2023-01-16T16:44:35;0.50;;;0.30;;
25609;SDS011;13479;49.044;8.716;2023-01-16T16:47:23;0.13;;;0.10;;
25609;SDS011;13479;49.044;8.716;2023-01-16T16:49:50;0.77;;;0.30;;
25609;SDS011;13479;49.044;8.716;2023-01-16T16:52:23;1.17;;;0.33;;
25609;SDS011;13479;49.044;8.716;2023-01-16T16:54:54;0.80;;;0.30;;
25609;SDS011;13479;49.044;8.716;2023-01-16T16:57:22;0.83;;;0.30;;
25609;SDS011;13479;49.044;8.716;2023-01-16T16:59:50;0.33;;;0.20;;
25609;SDS011;13479;49.044;8.716;2023-01-16T17:02:16;0.53;;;0.17;;
25609;SDS011;13479;49.044;8.716;2023-01-16T17:04:42;0.50;;;0.30;;
25609;SDS011;13479;49.044;8.716;2023-01-16T17:07:08;0.47;;;0.27;;
25609;SDS011;13479;49.044;8.716;2023-01-16T17:09:33;0.87;;;0.20;;
25609;SDS011;13479;49.044;8.716;2023-01-16T17:11:59;0.10;;;0.10;;
25609;SDS011;13479;49.044;8.716;2023-01-16T17:14:37;0.30;;;0.20;;
25609;SDS011;13479;49.044;8.716;2023-01-16T17:17:03;0.10;;;0.10;;
25609;SDS011;13479;49.044;8.716;2023-01-16T17:19:30;0.20;;;0.10;;
25609;SDS011;13479;49.044;8.716;2023-01-16T17:21:56;0.10;;;0.10;;
25609;SDS011;13479;49.044;8.716;2023-01-16T17:24:21;0.30;;;0.10;;
25609;SDS011;13479;49.044;8.716;2023-01-16T17:26:48;0.30;;;0.10;;
25609;SDS011;13479;49.044;8.716;2023-01-16T17:29:14;0.60;;;0.30;;
25609;SDS011;13479;49.044;8.716;2023-01-16T17:31:42;0.57;;;0.30;;
25609;SDS011;13479;49.044;8.716;2023-01-16T17:34:12;0.83;;;0.40;;
25609;SDS011;13479;49.044;8.716;2023-01-16T17:36:39;2.50;;;1.30;;
25609;SDS011;13479;49.044;8.716;2023-01-16T17:39:04;0.50;;;0.37;;
25609;SDS011;13479;49.044;8.716;2023-01-16T17:41:30;0.60;;;0.20;;
25609;SDS011;13479;49.044;8.716;2023-01-16T17:44:21;0.37;;;0.27;;
25609;SDS011;13479;49.044;8.716;2023-01-16T17:47:06;0.10;;;0.10;;
25609;SDS011;13479;49.044;8.716;2023-01-16T17:49:33;0.53;;;0.30;;
25609;SDS011;13479;49.044;8.716;2023-01-16T17:52:18;0.30;;;0.10;;
25609;SDS011;13479;49.044;8.716;2023-01-16T17:54:44;0.30;;;0.20;;
25609;SDS011;13479;49.044;8.716;2023-01-16T17:57:28;0.73;;;0.37;;
25609;SDS011;13479;49.044;8.716;2023-01-16T17:59:53;0.30;;;0.20;;
25609;SDS011;13479;49.044;8.716;2023-01-16T18:02:19;0.47;;;0.30;;
25609;SDS011;13479;49.044;8.716;2023-01-16T18:04:45;0.10;;;0.10;;
25609;SDS011;13479;49.044;8.716;2023-01-16T18:07:10;1.00;;;0.30;;
25609;SDS011;13479;49.044;8.716;2023-01-16T18:09:35;1.30;;;0.20;;
25609;SDS011;13479;49.044;8.716;2023-01-16T18:12:01;2.03;;;0.13;;
25609;SDS011;13479;49.044;8.716;2023-01-16T18:14:46;0.40;;;0.23;;
25609;SDS011;13479;49.044;8.716;2023-01-16T18:17:29;0.20;;;0.20;;
25609;SDS011;13479;49.044;8.716;2023-01-16T18:19:58;1.53;;;0.30;;
25609;SDS011;13479;49.044;8.716;2023-01-16T18:22:30;0.20;;;0.20;;
25609;SDS011;13479;49.044;8.716;2023-01-16T18:24:59;0.30;;;0.20;;
25609;SDS011;13479;49.044;8.716;2023-01-16T18:27:24;0.90;;;0.40;;
25609;SDS011;13479;49.044;8.716;2023-01-16T18:29:50;1.80;;;0.40;;
25609;SDS011;13479;49.044;8.716;2023-01-16T18:32:15;0.73;;;0.30;;
25609;SDS011;13479;49.044;8.716;2023-01-16T18:34:44;0.20;;;0.20;;
25609;SDS011;13479;49.044;8.716;2023-01-16T18:37:42;0.73;;;0.30;;
25609;SDS011;13479;49.044;8.716;2023-01-16T18:40:28;0.60;;;0.30;;
25609;SDS011;13479;49.044;8.716;2023-01-16T18:43:12;0.50;;;0.30;;
25609;SDS011;13479;49.044;8.716;2023-01-16T18:45:56;0.60;;;0.37;;
25609;SDS011;13479;49.044;8.716;2023-01-16T18:48:40;1.63;;;0.30;;
25609;SDS011;13479;49.044;8.716;2023-01-16T18:51:24;2.43;;;0.40;;
25609;SDS011;13479;49.044;8.716;2023-01-16T18:54:12;1.53;;;0.40;;
25609;SDS011;13479;49.044;8.716;2023-01-16T18:56:59;0.83;;;0.43;;
25609;SDS011;13479;49.044;8.716;2023-01-16T18:59:43;0.80;;;0.50;;
25609;SDS011;13479;49.044;8.716;2023-01-16T19:02:39;1.60;;;0.60;;
25609;SDS011;13479;49.044;8.716;2023-01-16T19:05:17;2.17;;;0.70;;
25609;SDS011;13479;49.044;8.716;2023-01-16T19:07:47;1.43;;;0.60;;
25609;SDS011;13479;49.044;8.716;2023-01-16T19:10:26;2.20;;;0.60;;
25609;SDS011;13479;49.044;8.716;2023-01-16T19:12:59;1.57;;;0.63;;
25609;SDS011;13479;49.044;8.716;2023-01-16T19:15:27;2.53;;;0.87;;
25609;SDS011;13479;49.044;8.716;2023-01-16T19:17:54;1.57;;;0.60;;
25609;SDS011;13479;49.044;8.716;2023-01-16T19:20:20;3.37;;;0.60;;
25609;SDS011;13479;49.044;8.716;2023-01-16T19:22:49;1.90;;;0.70;;
25609;SDS011;13479;49.044;8.716;2023-01-16T19:25:16;0.97;;;0.40;;
25609;SDS011;13479;49.044;8.716;2023-01-16T19:27:42;1.93;;;0.67;;
25609;SDS011;13479;49.044;8.716;2023-01-16T19:30:07;3.77;;;0.73;;
25609;SDS011;13479;49.044;8.716;2023-01-16T19:32:33;2.43;;;0.90;;
25609;SDS011;13479;49.044;8.716;2023-01-16T19:34:59;1.33;;;0.47;;
25609;SDS011;13479;49.044;8.716;2023-01-16T19:37:24;2.07;;;0.60;;
25609;SDS011;13479;49.044;8.716;2023-01-16T19:39:50;2.17;;;0.67;;
25609;SDS011;13479;49.044;8.716;2023-01-16T19:42:15;4.37;;;0.40;;
25609;SDS011;13479;49.044;8.716;2023-01-16T19:44:59;2.40;;;0.63;;
25609;SDS011;13479;49.044;8.716;2023-01-16T19:47:43;1.73;;;0.60;;
25609;SDS011;13479;49.044;8.716;2023-01-16T19:50:09;1.37;;;0.80;;
25609;SDS011;13479;49.044;8.716;2023-01-16T19:52:35;2.07;;;0.70;;
25609;SDS011;13479;49.044;8.716;2023-01-16T19:55:00;2.47;;;0.77;;
25609;SDS011;13479;49.044;8.716;2023-01-16T19:57:26;1.60;;;0.70;;
25609;SDS011;13479;49.044;8.716;2023-01-16T19:59:51;4.90;;;0.80;;
25609;SDS011;13479;49.044;8.716;2023-01-16T20:02:17;5.17;;;0.87;;
25609;SDS011;13479;49.044;8.716;2023-01-16T20:04:43;3.33;;;0.80;;
25609;SDS011;13479;49.044;8.716;2023-01-16T20:07:09;2.17;;;0.80;;
25609;SDS011;13479;49.044;8.716;2023-01-16T20:09:36;1.67;;;0.70;;
25609;SDS011;13479;49.044;8.716;2023-01-16T20:12:03;2.83;;;0.87;;
25609;SDS011;13479;49.044;8.716;2023-01-16T20:14:48;2.63;;;0.90;;
25609;SDS011;13479;49.044;8.716;2023-01-16T20:17:14;3.03;;;0.90;;
25609;SDS011;13479;49.044;8.716;2023-01-16T20:19:40;1.93;;;0.80;;
25609;SDS011;13479;49.044;8.716;2023-01-16T20:22:06;4.27;;;1.10;;
25609;SDS011;13479;49.044;8.716;2023-01-16T20:24:32;4.87;;;0.87;;
25609;SDS011;13479;49.044;8.716;2023-01-16T20:26:58;4.10;;;1.20;;
25609;SDS011;13479;49.044;8.716;2023-01-16T20:29:25;3.63;;;0.80;;
25609;SDS011;13479;49.044;8.716;2023-01-16T20:31:53;4.37;;;1.10;;
25609;SDS011;13479;49.044;8.716;2023-01-16T20:34:18;2.27;;;0.60;;
25609;SDS011;13479;49.044;8.716;2023-01-16T20:36:44;2.23;;;0.90;;
25609;SDS011;13479;49.044;8.716;2023-01-16T20:39:11;2.73;;;0.90;;
25609;SDS011;13479;49.044;8.716;2023-01-16T20:41:37;3.80;;;1.00;;
25609;SDS011;13479;49.044;8.716;2023-01-16T20:44:21;4.83;;;1.13;;
25609;SDS011;13479;49.044;8.716;2023-01-16T20:47:14;3.27;;;0.90;;
25609;SDS011;13479;49.044;8.716;2023-01-16T20:49:41;3.10;;;0.97;;
25609;SDS011;13479;49.044;8.716;2023-01-16T20:52:08;2.07;;;0.70;;
25609;SDS011;13479;49.044;8.716;2023-01-16T20:54:35;3.43;;;0.80;;
25609;SDS011;13479;49.044;8.716;2023-01-16T20:57:00;2.50;;;0.80;;
25609;SDS011;13479;49.044;8.716;2023-01-16T20:59:26;2.80;;;0.83;;
25609;SDS011;13479;49.044;8.716;2023-01-16T21:01:52;5.00;;;0.97;;
25609;SDS011;13479;49.044;8.716;2023-01-16T21:04:19;6.00;;;1.20;;
25609;SDS011;13479;49.044;8.716;2023-01-16T21:06:46;5.30;;;0.80;;
25609;SDS011;13479;49.044;8.716;2023-01-16T21:09:13;2.90;;;0.90;;
25609;SDS011;13479;49.044;8.716;2023-01-16T21:11:40;1.87;;;0.70;;
25609;SDS011;13479;49.044;8.716;2023-01-16T21:14:25;7.23;;;1.10;;
25609;SDS011;13479;49.044;8.716;2023-01-16T21:16:50;3.00;;;0.93;;
25609;SDS011;13479;49.044;8.716;2023-01-16T21:19:34;3.80;;;1.00;;
25609;SDS011;13479;49.044;8.716;2023-01-16T21:22:23;3.73;;;1.00;;
25609;SDS011;13479;49.044;8.716;2023-01-16T21:24:50;3.43;;;1.10;;
25609;SDS011;13479;49.044;8.716;2023-01-16T21:27:16;3.70;;;1.00;;
25609;SDS011;13479;49.044;8.716;2023-01-16T21:29:43;2.47;;;0.93;;
25609;SDS011;13479;49.044;8.716;2023-01-16T21:32:10;2.47;;;1.00;;
25609;SDS011;13479;49.044;8.716;2023-01-16T21:34:36;5.13;;;0.70;;
25609;SDS011;13479;49.044;8.716;2023-01-16T21:37:02;5.10;;;1.00;;
25609;SDS011;13479;49.044;8.716;2023-01-16T21:39:28;2.00;;;0.80;;
25609;SDS011;13479;49.044;8.716;2023-01-16T21:41:53;4.83;;;0.90;;
25609;SDS011;13479;49.044;8.716;2023-01-16T21:44:37;1.93;;;0.53;;
25609;SDS011;13479;49.044;8.716;2023-01-16T21:47:21;2.40;;;0.70;;
25609;SDS011;13479;49.044;8.716;2023-01-16T21:49:50;5.83;;;1.17;;
25609;SDS011;13479;49.044;8.716;2023-01-16T21:52:15;1.47;;;0.70;;
25609;SDS011;13479;49.044;8.716;2023-01-16T21:54:41;2.10;;;1.03;;
25609;SDS011;13479;49.044;8.716;2023-01-16T21:57:06;1.93;;;0.90;;
25609;SDS011;13479;49.044;8.716;2023-01-16T21:59:32;1.07;;;0.50;;
